createdAt,value
2022-09-03T00:03:37.424Z,11.24
2022-09-03T00:09:03.406Z,11.17
2022-09-03T00:14:32.583Z,10.75
2022-09-03T00:20:00.261Z,10.75
2022-09-03T00:25:35.480Z,10.76
2022-09-03T00:31:08.731Z,10.68
2022-09-03T00:36:42.408Z,10.58
2022-09-03T00:42:07.185Z,10.36
2022-09-03T00:47:40.878Z,10.20
2022-09-03T00:53:14.828Z,10.14
2022-09-03T00:58:45.219Z,10.14
2022-09-03T01:04:34.658Z,9.99
2022-09-03T01:10:08.773Z,10.00
2022-09-03T01:16:04.750Z,9.86
2022-09-03T01:22:00.805Z,9.71
2022-09-03T01:27:32.359Z,9.61
2022-09-03T01:33:18.241Z,9.44
2022-09-03T01:38:59.739Z,9.28
2022-09-03T01:44:36.553Z,9.18
2022-09-03T01:50:15.944Z,9.11
2022-09-03T01:56:09.191Z,9.14
2022-09-03T02:01:40.025Z,9.02
2022-09-03T02:07:03.374Z,8.94
2022-09-03T02:12:25.379Z,8.97
2022-09-03T02:17:49.176Z,8.82
2022-09-03T02:23:11.026Z,8.78
2022-09-03T02:28:33.662Z,8.69
2022-09-03T02:33:57.724Z,8.64
2022-09-03T02:39:19.972Z,8.51
2022-09-03T02:44:48.133Z,8.49
2022-09-03T02:50:10.131Z,8.55
2022-09-03T02:55:31.921Z,8.44
2022-09-03T03:00:54.598Z,8.39
2022-09-03T03:06:16.752Z,8.44
2022-09-03T03:11:38.573Z,8.46
2022-09-03T03:17:00.432Z,8.45
2022-09-03T03:22:22.269Z,8.24
2022-09-03T03:27:44.071Z,8.18
2022-09-03T03:33:06.885Z,8.16
2022-09-03T03:38:28.701Z,8.08
2022-09-03T03:43:58.745Z,8.09
2022-09-03T03:49:20.574Z,8.06
2022-09-03T03:54:42.391Z,8.12
2022-09-03T04:00:04.857Z,8.22
2022-09-03T04:05:26.670Z,8.10
2022-09-03T04:10:48.861Z,8.56
2022-09-03T04:16:14.970Z,9.44
2022-09-03T04:21:36.814Z,11.50
2022-09-03T04:26:58.612Z,15.40
2022-09-03T04:32:20.436Z,17.98
2022-09-03T04:37:42.285Z,19.40
2022-09-03T04:43:04.259Z,20.07
2022-09-03T04:48:27.750Z,21.39
2022-09-03T04:53:57.327Z,23.63
2022-09-03T04:59:19.186Z,25.14
2022-09-03T05:04:41.903Z,24.53
2022-09-03T05:10:10.194Z,24.34
2022-09-03T05:15:32.934Z,22.64
2022-09-03T05:21:08.485Z,19.68
2022-09-03T05:26:33.347Z,20.33
2022-09-03T05:31:55.228Z,21.08
2022-09-03T05:37:17.111Z,22.97
2022-09-03T05:42:39.186Z,27.86
2022-09-03T05:48:01.059Z,30.45
2022-09-03T05:53:23.008Z,31.95
2022-09-03T05:58:50.182Z,30.38
2022-09-03T06:04:14.792Z,32.81
2022-09-03T06:09:36.790Z,34.85
2022-09-03T06:14:58.651Z,34.21
2022-09-03T06:20:20.472Z,34.83
2022-09-03T06:25:42.320Z,35.80
2022-09-03T06:31:06.314Z,37.23
2022-09-03T06:36:28.152Z,36.84
2022-09-03T06:41:50.080Z,37.24
2022-09-03T06:47:11.857Z,37.61
2022-09-03T06:52:33.656Z,38.93
2022-09-03T06:57:55.799Z,35.62
2022-09-03T07:03:20.034Z,38.21
2022-09-03T07:08:42.792Z,36.67
2022-09-03T07:14:05.435Z,35.69
2022-09-03T07:19:27.260Z,37.59
2022-09-03T07:24:49.126Z,38.77
2022-09-03T07:30:11.617Z,36.01
2022-09-03T07:35:37.008Z,37.02
2022-09-03T07:41:00.241Z,36.39
2022-09-03T07:46:24.791Z,36.17
2022-09-03T07:51:46.806Z,35.27
2022-09-03T07:57:08.629Z,36.35
2022-09-03T08:02:30.436Z,35.40
2022-09-03T08:07:52.267Z,35.72
2022-09-03T08:13:14.069Z,35.65
2022-09-03T08:18:36.657Z,37.48
2022-09-03T08:23:58.821Z,34.61
2022-09-03T08:29:21.242Z,34.42
2022-09-03T08:34:43.121Z,34.55
2022-09-03T08:40:05.738Z,33.94
2022-09-03T08:45:28.640Z,32.68
2022-09-03T08:50:52.428Z,32.02
2022-09-03T08:56:35.715Z,33.68
2022-09-03T09:02:15.339Z,32.40
2022-09-03T09:07:47.981Z,33.12
2022-09-03T09:13:22.537Z,31.16
2022-09-03T09:18:56.610Z,29.80
2022-09-03T09:24:27.147Z,29.89
2022-09-03T09:29:50.631Z,27.59
2022-09-03T09:35:17.409Z,27.80
2022-09-03T09:40:45.284Z,28.69
2022-09-03T09:46:13.307Z,28.91
2022-09-03T09:51:35.127Z,28.77
2022-09-03T09:57:03.264Z,27.28
2022-09-03T10:02:27.209Z,26.08
2022-09-03T10:08:01.198Z,25.68
2022-09-03T10:13:29.909Z,25.62
2022-09-03T10:19:04.594Z,24.63
2022-09-03T10:24:52.583Z,23.92
2022-09-03T10:30:14.416Z,22.76
2022-09-03T10:35:45.641Z,22.34
2022-09-03T10:41:24.211Z,22.11
2022-09-03T10:47:09.359Z,21.99
2022-09-03T10:52:55.882Z,22.03
2022-09-03T10:58:49.905Z,22.22
2022-09-03T11:04:36.379Z,22.04
2022-09-03T11:10:21.675Z,21.65
2022-09-03T11:15:59.350Z,22.19
2022-09-03T11:21:27.309Z,22.01
2022-09-03T11:26:57.734Z,21.66
2022-09-03T11:32:30.301Z,21.77
2022-09-03T11:38:03.369Z,21.72
2022-09-03T11:43:25.181Z,21.70
2022-09-03T11:48:49.914Z,21.75
2022-09-03T11:54:17.908Z,21.76
2022-09-03T11:59:42.898Z,21.99
2022-09-03T12:05:29.321Z,21.66
2022-09-03T12:11:23.647Z,21.82
2022-09-03T12:16:45.394Z,21.50
2022-09-03T12:22:15.974Z,21.89
2022-09-03T12:27:38.355Z,21.73
2022-09-03T12:33:08.047Z,21.95
2022-09-03T12:38:29.998Z,21.98
2022-09-03T12:43:57.517Z,22.24
2022-09-03T12:49:34.674Z,22.12
2022-09-03T12:55:21.162Z,22.22
2022-09-03T13:01:05.703Z,21.61
2022-09-03T13:06:39.609Z,21.85
2022-09-03T13:12:01.814Z,21.75
2022-09-03T13:17:29.552Z,21.70
2022-09-03T13:23:09.858Z,22.03
2022-09-03T13:29:06.654Z,22.03
2022-09-03T13:34:37.609Z,21.80
2022-09-03T13:40:10.853Z,21.94
2022-09-03T13:45:41.143Z,21.72
2022-09-03T13:51:22.554Z,22.00
2022-09-03T13:57:21.114Z,21.80
2022-09-03T14:02:51.102Z,21.94
2022-09-03T14:08:30.765Z,22.04
2022-09-03T14:14:18.001Z,22.13
2022-09-03T14:19:55.454Z,22.08
2022-09-03T14:25:18.907Z,22.35
2022-09-03T14:30:55.798Z,21.92
2022-09-03T14:36:33.261Z,22.04
2022-09-03T14:42:01.296Z,22.07
2022-09-03T14:47:47.253Z,22.05
2022-09-03T14:53:27.141Z,21.96
2022-09-03T14:59:07.827Z,21.92
2022-09-03T15:05:08.313Z,22.00
2022-09-03T15:10:42.609Z,22.10
2022-09-03T15:16:35.305Z,21.72
2022-09-03T15:22:13.063Z,22.06
2022-09-03T15:27:57.059Z,21.98
2022-09-03T15:33:28.393Z,22.11
2022-09-03T15:39:02.031Z,22.04
2022-09-03T15:44:26.446Z,22.05
2022-09-03T15:50:00.664Z,21.53
2022-09-03T15:55:32.612Z,21.47
2022-09-03T16:01:04.337Z,21.47
2022-09-03T16:06:38.016Z,21.55
2022-09-03T16:12:15.169Z,21.34
2022-09-03T16:17:50.021Z,21.16
2022-09-03T16:23:26.726Z,21.40
2022-09-03T16:29:11.952Z,21.13
2022-09-03T16:34:54.689Z,21.03
2022-09-03T16:40:32.444Z,20.89
2022-09-03T16:46:03.050Z,20.82
2022-09-03T16:51:53.910Z,20.71
2022-09-03T16:57:43.564Z,20.50
2022-09-03T17:03:33.253Z,20.43
2022-09-03T17:09:13.834Z,20.13
2022-09-03T17:15:09.288Z,20.08
2022-09-03T17:20:55.356Z,19.84
2022-09-03T17:26:20.098Z,19.80
2022-09-03T17:32:18.782Z,19.51
2022-09-03T17:38:05.794Z,19.68
2022-09-03T17:43:33.611Z,19.40
2022-09-03T17:48:58.777Z,19.26
2022-09-03T17:54:23.424Z,19.21
2022-09-03T17:59:53.953Z,19.08
2022-09-03T18:05:31.005Z,19.03
2022-09-03T18:11:13.570Z,18.85
2022-09-03T18:16:41.376Z,18.85
2022-09-03T18:22:05.367Z,18.72
2022-09-03T18:28:03.585Z,18.50
2022-09-03T18:33:26.455Z,18.37
2022-09-03T18:38:48.351Z,18.24
2022-09-03T18:44:10.111Z,18.11
2022-09-03T18:49:40.783Z,18.08
2022-09-03T18:55:20.084Z,17.92
2022-09-03T19:00:58.963Z,17.84
2022-09-03T19:06:35.739Z,17.61
2022-09-03T19:12:11.229Z,17.55
2022-09-03T19:17:38.808Z,17.34
2022-09-03T19:23:02.843Z,17.35
2022-09-03T19:28:27.433Z,17.30
2022-09-03T19:34:06.885Z,17.15
2022-09-03T19:39:40.906Z,17.10
2022-09-03T19:45:21.099Z,17.26
2022-09-03T19:50:57.790Z,17.36
2022-09-03T19:56:27.385Z,17.36
2022-09-03T20:01:49.667Z,17.37
2022-09-03T20:07:11.512Z,17.26
2022-09-03T20:12:39.929Z,16.92
2022-09-03T20:18:30.193Z,16.81
2022-09-03T20:24:15.588Z,16.68
2022-09-03T20:29:53.147Z,16.58
2022-09-03T20:35:29.789Z,16.57
2022-09-03T20:40:57.256Z,16.16
2022-09-03T20:46:37.272Z,16.32
2022-09-03T20:52:04.658Z,16.27
2022-09-03T20:57:40.694Z,16.30
2022-09-03T21:03:15.240Z,16.28
2022-09-03T21:08:49.130Z,16.28
2022-09-03T21:14:34.109Z,16.13
2022-09-03T21:20:16.890Z,16.18
2022-09-03T21:25:44.361Z,15.98
2022-09-03T21:31:32.853Z,15.92
2022-09-03T21:37:04.355Z,15.74
2022-09-03T21:42:49.184Z,15.65
2022-09-03T21:48:22.741Z,15.55
2022-09-03T21:54:04.947Z,15.41
2022-09-03T21:59:51.710Z,15.21
2022-09-03T22:05:15.712Z,14.46
2022-09-03T22:10:40.682Z,13.86
2022-09-03T22:16:17.296Z,13.53
2022-09-03T22:21:48.016Z,12.74
2022-09-03T22:27:21.120Z,12.93
2022-09-03T22:33:05.751Z,12.64
2022-09-03T22:38:39.716Z,12.34
2022-09-03T22:44:10.465Z,12.21
2022-09-03T22:49:39.717Z,11.97
2022-09-03T22:55:21.227Z,11.83
2022-09-03T23:00:56.713Z,11.84
2022-09-03T23:06:29.989Z,11.80
2022-09-03T23:11:59.950Z,11.72
2022-09-03T23:23:05.863Z,11.50
2022-09-03T23:28:34.047Z,11.52
2022-09-03T23:33:55.861Z,11.49
2022-09-03T23:40:03.298Z,11.19
2022-09-03T23:45:38.813Z,11.13
2022-09-03T23:51:19.137Z,11.32
2022-09-03T23:57:06.759Z,10.79
